createdAt,value
2023-10-06T00:02:31.829Z,101500.19
2023-10-06T00:04:59.115Z,101501.06
2023-10-06T00:07:27.436Z,101490.59
2023-10-06T00:09:57.133Z,101494.91
2023-10-06T00:12:27.064Z,101494.00
2023-10-06T00:14:53.893Z,101493.09
2023-10-06T00:17:20.788Z,101487.00
2023-10-06T00:19:53.448Z,101486.97
2023-10-06T00:22:20.306Z,101496.59
2023-10-06T00:24:48.910Z,101492.19
2023-10-06T00:27:16.979Z,101491.31
2023-10-06T00:29:55.332Z,101499.16
2023-10-06T00:32:29.025Z,101505.22
2023-10-06T00:35:09.703Z,101503.47
2023-10-06T00:37:39.974Z,101506.97
2023-10-06T00:40:21.103Z,101517.38
2023-10-06T00:42:58.976Z,101514.78
2023-10-06T00:45:27.522Z,101519.13
2023-10-06T00:47:54.876Z,101516.50
2023-10-06T00:50:25.757Z,101513.03
2023-10-06T00:52:53.218Z,101513.00
2023-10-06T00:55:21.397Z,101513.84
2023-10-06T00:57:54.313Z,101521.66
2023-10-06T01:00:22.153Z,101505.97
2023-10-06T01:02:52.435Z,101513.81
2023-10-06T01:05:22.844Z,101507.66
2023-10-06T01:07:50.913Z,101514.69
2023-10-06T01:10:19.803Z,101511.19
2023-10-06T01:12:51.879Z,101520.78
2023-10-06T01:15:20.688Z,101511.19
2023-10-06T01:17:48.704Z,101506.81
2023-10-06T01:20:42.259Z,101521.63
2023-10-06T01:23:21.321Z,101514.59
2023-10-06T01:26:01.059Z,101491.91
2023-10-06T01:28:28.052Z,101500.59
2023-10-06T01:30:54.659Z,101490.13
2023-10-06T01:33:21.412Z,101497.94
2023-10-06T01:35:48.011Z,101490.97
2023-10-06T01:38:20.666Z,101489.19
2023-10-06T01:40:57.270Z,101488.38
2023-10-06T01:43:24.263Z,101475.25
2023-10-06T01:45:52.362Z,101477.00
2023-10-06T01:48:21.587Z,101490.06
2023-10-06T01:50:51.415Z,101483.97
2023-10-06T01:53:21.757Z,101482.19
2023-10-06T01:55:55.628Z,101480.41
2023-10-06T01:58:22.515Z,101476.03
2023-10-06T02:00:49.786Z,101476.88
2023-10-06T02:03:22.489Z,101484.69
2023-10-06T02:05:49.598Z,101470.75
2023-10-06T02:08:22.112Z,101470.72
2023-10-06T02:10:49.079Z,101467.22
2023-10-06T02:13:22.225Z,101476.81
2023-10-06T02:16:00.389Z,101470.66
2023-10-06T02:18:37.701Z,101468.94
2023-10-06T02:21:15.891Z,101468.88
2023-10-06T02:23:43.413Z,101477.59
2023-10-06T02:26:10.906Z,101477.59
2023-10-06T02:28:44.953Z,101478.47
2023-10-06T02:31:12.968Z,101469.75
2023-10-06T02:33:41.253Z,101468.84
2023-10-06T02:36:17.087Z,101465.31
2023-10-06T02:38:48.107Z,101473.16
2023-10-06T02:41:20.565Z,101469.72
2023-10-06T02:43:52.265Z,101470.59
2023-10-06T02:46:24.578Z,101463.56
2023-10-06T02:48:52.420Z,101454.03
2023-10-06T02:51:50.200Z,101447.97
2023-10-06T02:54:16.996Z,101451.47
2023-10-06T02:56:46.718Z,101446.25
2023-10-06T02:59:23.069Z,101454.09
2023-10-06T03:01:53.426Z,101449.75
2023-10-06T03:04:22.827Z,101448.91
2023-10-06T03:06:57.084Z,101450.69
2023-10-06T03:09:39.521Z,101448.06
2023-10-06T03:12:33.150Z,101450.72
2023-10-06T03:15:00.032Z,101448.09
2023-10-06T03:17:27.772Z,101449.84
2023-10-06T03:20:11.928Z,101441.13
2023-10-06T03:22:39.739Z,101450.78
2023-10-06T03:25:16.986Z,101442.94
2023-10-06T03:27:43.974Z,101442.94
2023-10-06T03:30:20.495Z,101432.47
2023-10-06T03:32:50.658Z,101429.84
2023-10-06T03:35:36.811Z,101434.25
2023-10-06T03:38:24.150Z,101438.59
2023-10-06T03:40:53.591Z,101435.13
2023-10-06T03:43:39.909Z,101436.81
2023-10-06T03:46:09.421Z,101419.41
2023-10-06T03:48:37.259Z,101424.63
2023-10-06T03:51:04.090Z,101413.28
2023-10-06T03:53:30.901Z,101416.78
2023-10-06T03:56:00.891Z,101412.44
2023-10-06T03:58:30.669Z,101410.69
2023-10-06T04:00:57.345Z,101410.69
2023-10-06T04:03:24.390Z,101415.03
2023-10-06T04:05:52.877Z,101402.84
2023-10-06T04:08:23.965Z,101402.84
2023-10-06T04:10:59.212Z,101404.59
2023-10-06T04:13:29.242Z,101397.56
2023-10-06T04:15:58.052Z,101401.06
2023-10-06T04:18:26.076Z,101393.22
2023-10-06T04:20:54.673Z,101391.44
2023-10-06T04:23:25.519Z,101391.44
2023-10-06T04:25:58.257Z,101380.13
2023-10-06T04:28:30.217Z,101378.38
2023-10-06T04:31:02.157Z,101376.63
2023-10-06T04:33:32.307Z,101371.41
2023-10-06T04:36:14.051Z,101371.41
2023-10-06T04:38:41.586Z,101367.03
2023-10-06T04:41:10.199Z,101364.44
2023-10-06T04:43:38.435Z,101361.84
2023-10-06T04:46:07.922Z,101360.13
2023-10-06T04:48:37.280Z,101348.78
2023-10-06T04:51:05.141Z,101351.41
2023-10-06T04:53:36.640Z,101341.81
2023-10-06T04:56:05.172Z,101341.84
2023-10-06T04:58:32.380Z,101340.13
2023-10-06T05:01:02.088Z,101335.75
2023-10-06T05:03:28.957Z,101328.78
2023-10-06T05:05:57.064Z,101330.56
2023-10-06T05:08:25.941Z,101331.44
2023-10-06T05:10:54.156Z,101334.06
2023-10-06T05:13:21.765Z,101330.56
2023-10-06T05:15:48.510Z,101329.72
2023-10-06T05:18:17.946Z,101332.34
2023-10-06T05:20:44.808Z,101323.63
2023-10-06T05:23:15.761Z,101329.72
2023-10-06T05:25:46.040Z,101328.03
2023-10-06T05:28:14.543Z,101330.63
2023-10-06T05:30:43.200Z,101321.91
2023-10-06T05:33:10.698Z,101327.19
2023-10-06T05:35:41.592Z,101326.34
2023-10-06T05:38:09.644Z,101308.94
2023-10-06T05:40:36.639Z,101301.13
2023-10-06T05:43:05.426Z,101303.81
2023-10-06T05:45:32.278Z,101301.22
2023-10-06T05:48:00.146Z,101295.16
2023-10-06T05:50:29.957Z,101292.59
2023-10-06T05:53:02.879Z,101297.00
2023-10-06T05:55:31.670Z,101291.81
2023-10-06T05:58:01.472Z,101284.00
2023-10-06T06:00:32.504Z,101284.06
2023-10-06T06:03:11.578Z,101276.28
2023-10-06T06:05:39.889Z,101269.34
2023-10-06T06:08:09.845Z,101269.38
2023-10-06T06:10:37.562Z,101266.81
2023-10-06T06:13:05.018Z,101268.63
2023-10-06T06:15:33.016Z,101256.44
2023-10-06T06:18:00.210Z,101259.97
2023-10-06T06:20:27.308Z,101262.63
2023-10-06T06:23:00.916Z,101257.44
2023-10-06T06:25:27.690Z,101249.59
2023-10-06T06:27:55.652Z,101246.13
2023-10-06T06:30:25.070Z,101252.28
2023-10-06T06:32:54.165Z,101233.94
2023-10-06T06:35:22.678Z,101243.56
2023-10-06T06:38:02.755Z,101234.81
2023-10-06T06:40:29.991Z,101233.09
2023-10-06T06:42:56.972Z,101233.06
2023-10-06T06:45:25.712Z,101232.19
2023-10-06T06:47:53.366Z,101229.56
2023-10-06T06:50:20.668Z,101224.31
2023-10-06T06:52:49.619Z,101218.16
2023-10-06T06:55:16.313Z,101202.41
2023-10-06T06:57:50.669Z,101215.47
2023-10-06T07:00:26.017Z,101215.44
2023-10-06T07:02:54.120Z,101210.16
2023-10-06T07:05:22.854Z,101213.66
2023-10-06T07:07:54.058Z,101216.22
2023-10-06T07:10:23.907Z,101209.16
2023-10-06T07:12:52.453Z,101198.59
2023-10-06T07:15:21.021Z,101201.16
2023-10-06T07:17:50.054Z,101201.94
2023-10-06T07:20:25.450Z,101192.25
2023-10-06T07:22:55.622Z,101193.94
2023-10-06T07:25:25.407Z,101193.84
2023-10-06T07:27:54.430Z,101192.00
2023-10-06T07:30:23.983Z,101196.28
2023-10-06T07:32:58.196Z,101192.72
2023-10-06T07:35:38.243Z,101188.25
2023-10-06T07:38:05.260Z,101179.38
2023-10-06T07:40:32.416Z,101168.72
2023-10-06T07:42:59.941Z,101166.00
2023-10-06T07:45:31.659Z,101158.00
2023-10-06T07:47:58.400Z,101152.59
2023-10-06T07:50:27.875Z,101154.22
2023-10-06T07:52:54.529Z,101145.34
2023-10-06T07:55:24.222Z,101137.31
2023-10-06T07:57:52.338Z,101141.56
2023-10-06T08:00:31.395Z,101139.69
2023-10-06T08:03:00.924Z,101127.28
2023-10-06T08:05:30.689Z,101125.41
2023-10-06T08:07:59.784Z,101116.50
2023-10-06T08:10:26.897Z,101116.34
2023-10-06T08:12:57.735Z,101106.53
2023-10-06T08:15:26.827Z,101107.25
2023-10-06T08:17:54.912Z,101099.16
2023-10-06T08:20:22.248Z,101098.09
2023-10-06T08:22:50.332Z,101078.56
2023-10-06T08:25:18.827Z,101063.41
2023-10-06T08:27:47.154Z,101058.84
2023-10-06T08:30:18.211Z,101050.69
2023-10-06T08:32:50.399Z,101042.59
2023-10-06T08:35:17.547Z,101038.84
2023-10-06T08:37:45.301Z,101040.41
2023-10-06T08:40:18.398Z,101031.44
2023-10-06T08:42:50.949Z,101020.63
2023-10-06T08:45:23.578Z,101013.41
2023-10-06T08:48:00.716Z,101006.16
2023-10-06T08:50:32.841Z,101008.63
2023-10-06T08:53:02.427Z,100994.34
2023-10-06T08:55:30.296Z,100989.63
2023-10-06T08:58:02.835Z,100982.38
2023-10-06T09:00:33.068Z,100968.91
2023-10-06T09:03:09.164Z,100967.84
2023-10-06T09:05:39.531Z,100952.66
2023-10-06T09:08:11.235Z,100947.22
2023-10-06T09:10:41.694Z,100945.28
2023-10-06T09:13:13.151Z,100933.63
2023-10-06T09:15:42.343Z,100925.50
2023-10-06T09:18:28.549Z,100917.34
2023-10-06T09:20:58.263Z,100915.28
2023-10-06T09:23:32.377Z,100922.06
2023-10-06T09:26:01.666Z,100919.09
2023-10-06T09:28:29.353Z,100919.75
2023-10-06T09:30:58.757Z,100908.91
2023-10-06T09:33:27.905Z,100907.72
2023-10-06T09:36:36.284Z,100895.97
2023-10-06T09:39:15.484Z,100881.56
2023-10-06T09:41:42.532Z,100868.09
2023-10-06T09:44:13.611Z,100856.31
2023-10-06T09:46:44.742Z,100839.19
2023-10-06T09:49:17.432Z,100837.19
2023-10-06T09:51:45.627Z,100835.94
2023-10-06T09:54:14.005Z,100823.25
2023-10-06T09:56:43.804Z,100810.63
2023-10-06T09:59:14.809Z,100791.00
2023-10-06T10:01:48.427Z,100785.47
2023-10-06T10:04:19.508Z,100770.25
2023-10-06T10:06:46.402Z,100758.59
2023-10-06T10:09:17.743Z,100747.84
2023-10-06T10:12:15.037Z,100754.78
2023-10-06T10:14:50.966Z,100748.44
2023-10-06T10:17:30.472Z,100739.47
2023-10-06T10:19:58.708Z,100723.44
2023-10-06T10:22:26.303Z,100729.50
2023-10-06T10:27:24.647Z,100703.56
2023-10-06T10:29:52.121Z,100704.28
2023-10-06T10:32:24.459Z,100681.97
2023-10-06T10:35:14.402Z,100677.41
2023-10-06T10:38:05.577Z,100671.97
2023-10-06T10:40:48.246Z,100657.63
2023-10-06T10:43:15.695Z,100644.97
2023-10-06T10:45:46.705Z,100635.94
2023-10-06T10:48:15.469Z,100621.59
2023-10-06T10:50:54.138Z,100619.84
2023-10-06T10:53:22.260Z,100610.00
2023-10-06T10:55:49.754Z,100583.44
2023-10-06T10:58:50.732Z,100569.28
2023-10-06T11:01:41.437Z,100554.22
2023-10-06T11:04:14.465Z,100545.31
2023-10-06T11:06:44.276Z,100545.25
2023-10-06T11:09:26.509Z,100530.03
2023-10-06T11:12:20.414Z,100519.34
2023-10-06T11:14:53.083Z,100519.16
2023-10-06T11:17:22.024Z,100505.72
2023-10-06T11:20:03.206Z,100503.84
2023-10-06T11:22:31.598Z,100496.81
2023-10-06T11:25:04.159Z,100482.69
2023-10-06T11:27:30.771Z,100470.47
2023-10-06T11:29:59.503Z,100463.50
2023-10-06T11:32:27.876Z,100445.03
2023-10-06T11:34:55.654Z,100439.88
2023-10-06T11:37:26.147Z,100419.69
2023-10-06T11:39:54.674Z,100412.81
2023-10-06T11:42:28.860Z,100397.78
2023-10-06T11:44:56.924Z,100375.63
2023-10-06T11:47:29.947Z,100374.81
2023-10-06T11:49:58.596Z,100358.97
2023-10-06T11:52:28.958Z,100351.06
2023-10-06T11:54:57.479Z,100341.38
2023-10-06T11:57:52.697Z,100324.63
2023-10-06T12:00:34.979Z,100293.06
2023-10-06T12:03:02.363Z,100282.88
2023-10-06T12:05:29.969Z,100271.56
2023-10-06T12:08:09.787Z,100263.78
2023-10-06T12:13:38.374Z,100222.78
2023-10-06T12:16:15.260Z,100202.69
2023-10-06T12:18:45.930Z,100198.31
2023-10-06T12:21:15.505Z,100183.47
2023-10-06T12:23:43.550Z,100170.34
2023-10-06T12:26:10.354Z,100166.91
2023-10-06T12:28:40.034Z,100155.66
2023-10-06T12:31:07.220Z,100139.88
2023-10-06T12:33:34.292Z,100133.84
2023-10-06T12:36:05.027Z,100118.16
2023-10-06T12:38:31.660Z,100109.31
2023-10-06T12:40:58.310Z,100087.19
2023-10-06T12:43:24.892Z,100070.25
2023-10-06T12:45:51.756Z,100054.19
2023-10-06T12:48:18.445Z,100047.84
2023-10-06T12:50:45.108Z,100038.94
2023-10-06T12:53:12.883Z,100025.50
2023-10-06T12:55:43.297Z,100024.56
2023-10-06T12:58:12.868Z,100002.50
2023-10-06T13:00:39.953Z,100000.69
2023-10-06T13:03:12.787Z,99992.75
2023-10-06T13:05:39.552Z,99982.13
2023-10-06T13:08:06.152Z,99973.31
2023-10-06T13:10:32.723Z,99964.34
2023-10-06T13:12:59.422Z,99943.97
2023-10-06T13:15:30.320Z,99930.63
2023-10-06T13:17:57.003Z,99918.31
2023-10-06T13:20:23.622Z,99899.72
2023-10-06T13:22:50.605Z,99882.00
2023-10-06T13:25:18.984Z,99859.78
2023-10-06T13:27:49.037Z,99840.34
2023-10-06T13:30:18.083Z,99830.75
2023-10-06T13:32:49.656Z,99817.56
2023-10-06T13:35:17.750Z,99803.44
2023-10-06T13:37:50.447Z,99788.47
2023-10-06T13:40:19.677Z,99769.91
2023-10-06T13:42:51.340Z,99757.75
2023-10-06T13:45:26.387Z,99738.31
2023-10-06T13:47:54.971Z,99718.13
2023-10-06T13:50:22.993Z,99712.03
2023-10-06T13:52:50.879Z,99698.75
2023-10-06T13:55:22.619Z,99696.22
2023-10-06T13:57:54.546Z,99678.50
2023-10-06T14:00:33.772Z,99666.94
2023-10-06T14:03:02.292Z,99658.97
2023-10-06T14:05:32.407Z,99643.16
2023-10-06T14:08:05.352Z,99625.44
2023-10-06T14:10:33.379Z,99614.00
2023-10-06T14:13:22.346Z,99605.94
2023-10-06T14:15:55.390Z,99591.75
2023-10-06T14:18:33.642Z,99578.56
2023-10-06T14:21:07.166Z,99568.81
2023-10-06T14:23:37.326Z,99551.09
2023-10-06T14:26:09.576Z,99530.66
2023-10-06T14:28:36.162Z,99526.38
2023-10-06T14:31:17.678Z,99507.72
2023-10-06T14:33:58.990Z,99507.63
2023-10-06T14:36:27.635Z,99499.50
2023-10-06T14:39:12.494Z,99487.94
2023-10-06T14:41:57.491Z,99476.41
2023-10-06T14:44:42.758Z,99460.50
2023-10-06T14:47:11.048Z,99457.84
2023-10-06T14:49:44.439Z,99443.63
2023-10-06T14:52:12.305Z,99430.38
2023-10-06T14:54:39.855Z,99401.97
2023-10-06T14:57:06.695Z,99393.84
2023-10-06T14:59:33.594Z,99385.75
2023-10-06T15:02:07.862Z,99367.09
2023-10-06T15:04:35.767Z,99345.78
2023-10-06T15:07:03.033Z,99340.38
2023-10-06T15:09:31.810Z,99328.84
2023-10-06T15:11:58.601Z,99311.88
2023-10-06T15:14:26.471Z,99309.13
2023-10-06T15:16:54.782Z,99294.91
2023-10-06T15:19:26.448Z,99294.72
2023-10-06T15:21:54.040Z,99290.19
2023-10-06T15:24:20.752Z,99273.19
2023-10-06T15:26:48.810Z,99267.81
2023-10-06T15:29:16.607Z,99251.72
2023-10-06T15:31:43.423Z,99244.59
2023-10-06T15:34:10.164Z,99229.53
2023-10-06T15:36:37.866Z,99226.69
2023-10-06T15:39:19.037Z,99215.09
2023-10-06T15:41:52.736Z,99195.56
2023-10-06T15:44:20.142Z,99192.00
2023-10-06T15:46:47.394Z,99178.53
2023-10-06T15:49:18.173Z,99167.91
2023-10-06T15:54:34.520Z,99150.06
2023-10-06T15:57:01.398Z,99121.63
2023-10-06T15:59:31.020Z,99120.59
2023-10-06T16:01:57.979Z,99109.00
2023-10-06T16:04:26.656Z,99086.94
2023-10-06T16:06:54.633Z,99077.81
2023-10-06T16:09:21.499Z,99072.38
2023-10-06T16:11:49.093Z,99057.22
2023-10-06T16:14:19.594Z,99050.88
2023-10-06T16:16:49.305Z,99064.78
2023-10-06T16:19:18.321Z,99045.25
2023-10-06T16:21:45.459Z,99021.13
2023-10-06T16:24:14.518Z,99020.19
2023-10-06T16:26:42.244Z,99015.84
2023-10-06T16:29:11.153Z,99005.09
2023-10-06T16:31:39.193Z,98986.41
2023-10-06T16:34:05.882Z,98976.53
2023-10-06T16:36:33.167Z,98976.44
2023-10-06T16:39:00.453Z,98961.25
2023-10-06T16:41:27.209Z,98952.22
2023-10-06T16:43:55.049Z,98938.84
2023-10-06T16:46:21.851Z,98939.56
2023-10-06T16:48:48.956Z,98928.00
2023-10-06T16:51:15.798Z,98918.03
2023-10-06T16:53:42.523Z,98915.25
2023-10-06T16:56:09.607Z,98904.41
2023-10-06T16:58:36.427Z,98896.22
2023-10-06T17:01:09.092Z,98876.78
2023-10-06T17:03:36.750Z,98880.81
2023-10-06T17:06:05.258Z,98860.44
2023-10-06T17:08:32.118Z,98858.41
2023-10-06T17:11:15.580Z,98837.88
2023-10-06T17:13:42.797Z,98833.19
2023-10-06T17:16:10.686Z,98825.88
2023-10-06T17:18:37.889Z,98812.50
2023-10-06T17:21:08.177Z,98798.09
2023-10-06T17:23:35.326Z,98785.56
2023-10-06T17:26:02.933Z,98775.56
2023-10-06T17:28:31.016Z,98769.19
2023-10-06T17:31:01.747Z,98748.66
2023-10-06T17:33:29.998Z,98737.78
2023-10-06T17:35:58.050Z,98712.94
2023-10-06T17:38:24.874Z,98707.41
2023-10-06T17:40:51.532Z,98695.78
2023-10-06T17:43:18.415Z,98699.16
2023-10-06T17:45:45.709Z,98688.31
2023-10-06T17:48:15.145Z,98687.22
2023-10-06T17:50:51.218Z,98672.97
2023-10-06T17:53:17.839Z,98670.91
2023-10-06T17:55:54.132Z,98650.41
2023-10-06T17:58:21.564Z,98643.88
2023-10-06T18:00:49.769Z,98636.63
2023-10-06T18:03:18.536Z,98638.22
2023-10-06T18:05:48.936Z,98631.78
2023-10-06T18:08:17.442Z,98628.91
2023-10-06T18:10:44.630Z,98624.31
2023-10-06T18:13:12.907Z,98614.28
2023-10-06T18:15:39.567Z,98613.31
2023-10-06T18:18:06.228Z,98604.25
2023-10-06T18:20:40.045Z,98597.03
2023-10-06T18:23:07.680Z,98591.44
2023-10-06T18:25:35.164Z,98577.06
2023-10-06T18:28:06.142Z,98573.31
2023-10-06T18:30:33.702Z,98572.25
2023-10-06T18:33:00.324Z,98558.81
2023-10-06T18:35:27.199Z,98547.09
2023-10-06T18:37:54.802Z,98537.88
2023-10-06T18:40:21.522Z,98527.00
2023-10-06T18:42:48.568Z,98512.63
2023-10-06T18:45:15.353Z,98509.69
2023-10-06T18:47:42.088Z,98505.22
2023-10-06T18:50:18.910Z,98495.19
2023-10-06T18:52:52.996Z,98492.38
2023-10-06T18:55:23.831Z,98472.91
2023-10-06T18:57:52.045Z,98473.66
2023-10-06T19:00:19.148Z,98472.81
2023-10-06T19:02:48.375Z,98470.00
2023-10-06T19:05:15.892Z,98462.75
2023-10-06T19:07:43.449Z,98455.47
2023-10-06T19:10:15.853Z,98446.41
2023-10-06T19:12:42.875Z,98427.88
2023-10-06T19:15:09.902Z,98429.59
2023-10-06T19:17:40.637Z,98424.97
2023-10-06T19:20:08.834Z,98417.97
2023-10-06T19:22:36.206Z,98412.41
2023-10-06T19:25:03.195Z,98400.50
2023-10-06T19:27:30.092Z,98398.59
2023-10-06T19:29:56.761Z,98397.59
2023-10-06T19:32:24.919Z,98395.78
2023-10-06T19:34:52.683Z,98391.28
2023-10-06T19:37:20.842Z,98389.34
2023-10-06T19:39:47.692Z,98392.03
2023-10-06T19:42:14.469Z,98379.44
2023-10-06T19:44:44.509Z,98379.44
2023-10-06T19:47:13.193Z,98380.13
2023-10-06T19:49:40.235Z,98379.03
2023-10-06T19:52:09.514Z,98366.56
2023-10-06T19:54:36.964Z,98369.09
2023-10-06T19:57:04.240Z,98371.63
2023-10-06T19:59:33.765Z,98368.00
2023-10-06T20:02:02.208Z,98364.63
2023-10-06T20:04:29.034Z,98361.97
2023-10-06T20:06:55.816Z,98360.84
2023-10-06T20:09:25.265Z,98355.53
2023-10-06T20:11:52.302Z,98357.09
2023-10-06T20:14:19.081Z,98361.31
2023-10-06T20:16:45.807Z,98353.19
2023-10-06T20:19:12.721Z,98353.09
2023-10-06T20:21:40.605Z,98353.94
2023-10-06T20:24:12.756Z,98339.66
2023-10-06T20:26:42.220Z,98344.84
2023-10-06T20:29:12.038Z,98336.72
2023-10-06T20:31:39.981Z,98345.44
2023-10-06T20:34:07.667Z,98339.84
2023-10-06T20:36:35.152Z,98336.19
2023-10-06T20:39:09.676Z,98334.38
2023-10-06T20:41:41.356Z,98327.22
2023-10-06T20:44:11.904Z,98319.38
2023-10-06T20:46:45.986Z,98320.22
2023-10-06T20:49:15.178Z,98324.72
2023-10-06T20:51:42.554Z,98317.81
2023-10-06T20:54:09.713Z,98318.53
2023-10-06T20:56:36.570Z,98323.72
2023-10-06T20:59:03.209Z,98314.06
2023-10-06T21:01:33.116Z,98318.28
2023-10-06T21:04:06.200Z,98311.25
2023-10-06T21:06:35.732Z,98302.31
2023-10-06T21:09:05.795Z,98296.97
2023-10-06T21:11:35.162Z,98296.00
2023-10-06T21:14:01.883Z,98292.50
2023-10-06T21:16:28.648Z,98288.00
2023-10-06T21:18:55.618Z,98289.00
2023-10-06T21:21:22.591Z,98289.84
2023-10-06T21:23:49.230Z,98286.34
2023-10-06T21:26:15.940Z,98280.28
2023-10-06T21:28:42.701Z,98277.63
2023-10-06T21:31:09.463Z,98277.75
2023-10-06T21:33:36.917Z,98271.72
2023-10-06T21:36:03.982Z,98267.38
2023-10-06T21:38:31.693Z,98256.84
2023-10-06T21:41:02.912Z,98259.50
2023-10-06T21:43:29.708Z,98252.38
2023-10-06T21:45:56.353Z,98352.69
2023-10-06T21:48:22.974Z,98333.53
2023-10-06T21:50:50.372Z,98310.97
2023-10-06T21:53:17.262Z,98326.59
2023-10-06T21:55:44.942Z,98330.44
2023-10-06T21:58:11.560Z,98333.66
2023-10-06T22:00:43.641Z,98345.50
2023-10-06T22:03:11.758Z,98343.38
2023-10-06T22:05:41.430Z,98344.31
2023-10-06T22:08:09.542Z,98354.25
2023-10-06T22:10:39.079Z,98361.47
2023-10-06T22:13:05.754Z,98374.72
2023-10-06T22:15:32.354Z,98363.50
2023-10-06T22:17:59.780Z,98356.59
2023-10-06T22:20:31.842Z,98368.75
2023-10-06T22:23:00.244Z,98375.69
2023-10-06T22:25:28.345Z,98389.69
2023-10-06T22:27:56.246Z,98400.13
2023-10-06T22:30:24.101Z,98407.28
2023-10-06T22:32:50.942Z,98410.16
2023-10-06T22:35:17.751Z,98423.16
2023-10-06T22:37:44.436Z,98435.38
2023-10-06T22:40:17.584Z,98423.59
2023-10-06T22:42:48.897Z,98436.34
2023-10-06T22:45:17.111Z,98454.56
2023-10-06T22:47:44.478Z,98464.03
2023-10-06T22:50:12.984Z,98457.78
2023-10-06T22:52:41.606Z,98470.84
2023-10-06T22:55:09.889Z,98473.16
2023-10-06T22:57:36.542Z,98484.50
2023-10-06T23:00:03.281Z,98484.06
2023-10-06T23:02:29.936Z,98489.56
2023-10-06T23:04:56.618Z,98486.50
2023-10-06T23:07:23.283Z,98487.03
2023-10-06T23:09:50.483Z,98481.28
2023-10-06T23:12:17.112Z,98485.09
2023-10-06T23:14:43.695Z,98489.75
2023-10-06T23:17:11.098Z,98479.47
2023-10-06T23:19:37.770Z,98483.19
2023-10-06T23:22:04.418Z,98494.81
2023-10-06T23:24:49.545Z,98497.78
2023-10-06T23:27:23.154Z,98499.88
2023-10-06T23:29:50.989Z,98507.06
2023-10-06T23:32:18.489Z,98492.13
2023-10-06T23:34:45.427Z,98510.84
2023-10-06T23:37:17.601Z,98518.88
2023-10-06T23:39:50.590Z,98517.94
2023-10-06T23:42:17.499Z,98522.38
2023-10-06T23:44:44.474Z,98521.63
2023-10-06T23:47:11.654Z,98517.41
2023-10-06T23:49:47.760Z,98525.53
2023-10-06T23:52:15.108Z,98532.81
2023-10-06T23:54:48.687Z,98530.44
2023-10-06T23:57:18.762Z,98532.44
2023-10-06T23:59:49.284Z,98533.50
